Time;durP1;ratioP1;P1;durP2;ratioP2;P2;SDS_P1;SDS_P2;PMS_P1;PMS_P2;Temp;Humidity;BMP_temperature;BMP_pressure;BME280_temperature;BME280_humidity;BME280_pressure;Samples;Min_cycle;Max_cycle;Signal;HPM_P1;HPM_P2
2022/06/24 13:34:22;;;;;;;5.22;1.30;;;26.50;81.60;;;;;;5130697;27;20110;-72
2022/06/24 13:36:48;;;;;;;2.20;1.17;;;26.70;82.40;;;;;;5130096;28;20370;-73
2022/06/24 13:39:13;;;;;;;7.93;1.10;;;26.60;83.20;;;;;;5130616;28;20482;-73
2022/06/24 13:41:39;;;;;;;6.22;1.45;;;26.70;81.30;;;;;;5130374;28;20023;-73
2022/06/24 13:44:05;;;;;;;4.47;1.25;;;26.40;79.30;;;;;;5129318;28;20019;-73
2022/06/24 13:46:32;;;;;;;3.30;0.95;;;26.50;80.00;;;;;;5130162;28;20045;-73
2022/06/24 13:48:58;;;;;;;2.60;0.90;;;26.40;78.70;;;;;;5130483;28;20015;-73
2022/06/24 13:51:24;;;;;;;4.82;1.40;;;26.60;81.60;;;;;;5130525;27;20424;-73
2022/06/24 13:53:51;;;;;;;2.38;1.20;;;26.70;82.10;;;;;;5129765;27;20020;-73
2022/06/24 13:56:18;;;;;;;2.70;1.00;;;26.60;82.50;;;;;;5130974;28;20059;-73
2022/06/24 13:58:45;;;;;;;4.30;1.02;;;27.00;80.00;;;;;;5130312;28;20432;-73
2022/06/24 14:01:11;;;;;;;3.28;1.20;;;26.90;79.00;;;;;;5129818;27;20050;-73
2022/06/24 14:03:37;;;;;;;2.25;1.02;;;26.50;80.90;;;;;;5130934;27;20032;-73
2022/06/24 14:06:03;;;;;;;4.65;1.17;;;26.70;79.00;;;;;;5130116;28;20069;-73
2022/06/24 14:08:29;;;;;;;5.45;1.25;;;26.50;80.30;;;;;;5148971;27;20524;-73
2022/06/24 14:10:55;;;;;;;3.65;1.10;;;26.90;81.00;;;;;;5151152;27;20031;-73
2022/06/24 14:13:20;;;;;;;6.00;1.15;;;26.40;79.30;;;;;;5150584;27;20020;-74
2022/06/24 14:15:46;;;;;;;5.25;1.40;;;25.80;81.00;;;;;;5148874;27;20030;-73
2022/06/24 14:18:13;;;;;;;5.88;1.33;;;25.70;82.80;;;;;;5129722;28;20522;-74
2022/06/24 14:20:40;;;;;;;5.38;1.20;;;25.40;80.70;;;;;;5129944;28;20012;-74
2022/06/24 14:25:50;;;;;;;2.45;1.38;;;25.30;82.90;;;;;;5110241;28;20035;-74
2022/06/24 14:28:16;;;;;;;3.40;1.20;;;25.30;83.10;;;;;;5108878;28;20032;-74
2022/06/24 14:30:42;;;;;;;10.77;1.33;;;25.00;82.60;;;;;;5091189;28;20145;-74
2022/06/24 14:33:07;;;;;;;10.18;1.42;;;24.50;81.70;;;;;;5089514;28;20036;-74
2022/06/24 14:35:33;;;;;;;3.20;1.20;;;24.60;84.70;;;;;;5109642;28;20115;-74
2022/06/24 14:40:43;;;;;;;3.30;1.40;;;25.40;80.50;;;;;;5088853;28;20034;-73
2022/06/24 14:43:09;;;;;;;2.72;1.00;;;25.80;81.00;;;;;;5095992;28;20016;-73
2022/06/24 14:45:35;;;;;;;2.83;1.00;;;25.30;80.40;;;;;;5096201;28;20052;-74
2022/06/24 14:48:01;;;;;;;2.28;1.08;;;25.30;81.40;;;;;;5094389;28;20399;-74
2022/06/24 14:50:28;;;;;;;2.20;1.00;;;25.20;80.80;;;;;;5099825;28;20032;-74
2022/06/24 14:52:54;;;;;;;3.00;1.30;;;25.10;80.80;;;;;;5075487;28;20154;-74
2022/06/24 14:55:20;;;;;;;4.20;1.23;;;25.10;80.80;;;;;;5075157;28;20119;-74
2022/06/24 14:57:45;;;;;;;3.22;1.25;;;25.20;80.00;;;;;;5075091;28;20032;-73
2022/06/24 15:00:11;;;;;;;2.53;1.05;;;25.20;80.10;;;;;;5074777;28;20032;-73
2022/06/24 15:02:37;;;;;;;2.05;1.15;;;25.30;81.40;;;;;;5075170;28;20095;-73
2022/06/24 15:05:06;;;;;;;2.40;1.20;;;25.20;80.50;;;;;;5056899;28;20115;-73
2022/06/24 15:07:32;;;;;;;2.33;1.10;;;25.00;80.00;;;;;;5074816;28;20024;-74
2022/06/24 15:09:58;;;;;;;9.50;1.50;;;25.10;79.80;;;;;;5093550;28;20099;-73
2022/06/24 15:12:23;;;;;;;4.28;1.10;;;25.20;80.30;;;;;;5114872;28;20562;-73
2022/06/24 15:14:49;;;;;;;2.80;1.25;;;25.50;81.40;;;;;;5062785;28;20103;-73
2022/06/24 15:17:17;;;;;;;4.45;1.00;;;26.00;80.60;;;;;;5074805;28;20051;-73
2022/06/24 15:19:44;;;;;;;2.83;1.20;;;26.10;77.20;;;;;;5056564;28;20462;-73
2022/06/24 15:22:13;;;;;;;2.65;1.15;;;26.00;76.70;;;;;;5082350;28;20471;-73
2022/06/24 15:24:40;;;;;;;2.13;1.00;;;25.80;77.80;;;;;;5094513;28;20455;-73
2022/06/24 15:27:07;;;;;;;8.48;1.45;;;25.90;77.90;;;;;;5106622;28;20041;-73
2022/06/24 15:29:32;;;;;;;1.30;0.80;;;26.10;77.50;;;;;;5110899;28;20104;-73
2022/06/24 15:32:02;;;;;;;3.17;1.08;;;25.90;76.90;;;;;;5093506;28;20107;-73
2022/06/24 15:34:28;;;;;;;1.77;0.95;;;25.70;78.40;;;;;;5079573;28;20032;-74
2022/06/24 15:36:55;;;;;;;2.20;0.93;;;25.50;77.60;;;;;;5095432;28;20078;-74
2022/06/24 15:39:21;;;;;;;3.97;1.15;;;25.50;77.80;;;;;;5074115;28;20020;-75
2022/06/24 15:41:46;;;;;;;2.15;1.00;;;25.60;78.00;;;;;;5056172;28;20031;-73
2022/06/24 15:44:12;;;;;;;2.58;0.90;;;25.60;77.10;;;;;;5075542;28;20036;-73
2022/06/24 15:46:38;;;;;;;3.05;0.95;;;25.50;77.20;;;;;;5094177;28;20069;-73
2022/06/24 15:49:03;;;;;;;3.47;1.05;;;25.40;76.80;;;;;;5094572;28;20032;-73
2022/06/24 15:51:29;;;;;;;5.32;1.00;;;25.50;78.90;;;;;;5093838;28;20028;-73
2022/06/24 15:53:56;;;;;;;2.78;1.20;;;25.20;77.70;;;;;;5112716;28;20031;-73
2022/06/24 15:56:22;;;;;;;2.92;1.20;;;25.20;76.50;;;;;;5082611;28;20019;-73
2022/06/24 15:58:48;;;;;;;5.03;1.17;;;25.00;76.80;;;;;;5080037;28;20081;-74
2022/06/24 16:01:14;;;;;;;3.17;1.10;;;25.10;79.10;;;;;;5103359;28;20032;-73
2022/06/24 16:03:40;;;;;;;2.00;1.10;;;25.00;76.90;;;;;;5107069;28;20468;-73
2022/06/24 16:06:05;;;;;;;2.63;1.35;;;24.90;77.30;;;;;;5074749;28;20522;-73
2022/06/24 16:08:31;;;;;;;4.45;1.17;;;24.80;77.40;;;;;;5073501;28;20456;-73
2022/06/24 16:10:59;;;;;;;3.55;1.30;;;24.90;78.30;;;;;;5086569;28;20020;-73
2022/06/24 16:13:26;;;;;;;3.15;1.30;;;24.90;78.20;;;;;;5093516;28;20471;-73
2022/06/24 16:15:53;;;;;;;1.95;1.10;;;24.90;78.80;;;;;;5096593;28;20020;-73
2022/06/24 16:18:19;;;;;;;2.72;1.20;;;24.90;79.10;;;;;;5100446;28;20107;-73
2022/06/24 16:20:44;;;;;;;2.45;1.27;;;24.80;78.60;;;;;;5107146;28;20438;-73
2022/06/24 16:23:10;;;;;;;2.55;1.30;;;24.70;79.10;;;;;;5114234;28;20031;-73
2022/06/24 17:11:12;;;;;;;3.08;1.25;;;24.40;80.30;;;;;;4936716;29;20059;-74
2022/06/24 17:13:38;;;;;;;4.80;1.70;;;24.40;78.30;;;;;;4933241;29;20031;-74
2022/06/24 17:16:04;;;;;;;2.83;1.23;;;24.40;82.00;;;;;;4933394;29;20384;-73
2022/06/24 17:18:30;;;;;;;2.22;1.23;;;24.20;79.30;;;;;;4937365;29;20378;-74
2022/06/24 17:20:56;;;;;;;3.72;1.30;;;24.20;79.80;;;;;;4937784;29;20106;-73
2022/06/24 17:23:21;;;;;;;7.57;1.50;;;24.40;83.90;;;;;;4939196;28;20071;-74
2022/06/24 17:25:47;;;;;;;1.98;1.20;;;24.40;81.50;;;;;;4934287;29;20031;-73
2022/06/24 17:28:13;;;;;;;4.88;1.80;;;24.30;81.20;;;;;;4934670;29;20187;-75
2022/06/24 17:30:39;;;;;;;2.33;1.20;;;24.30;84.70;;;;;;4934165;29;20032;-74
2022/06/24 17:33:05;;;;;;;2.78;1.30;;;24.30;82.40;;;;;;4933547;29;20102;-74
2022/06/24 17:35:30;;;;;;;4.28;1.20;;;24.30;81.50;;;;;;4932055;29;20027;-74
2022/06/24 17:37:56;;;;;;;3.45;1.50;;;24.30;81.80;;;;;;4932829;29;20090;-75
2022/06/24 17:40:22;;;;;;;2.72;1.23;;;24.30;82.90;;;;;;4933362;29;20038;-74
2022/06/24 17:42:47;;;;;;;4.47;1.25;;;24.20;81.50;;;;;;4932437;29;20026;-74
2022/06/24 17:45:13;;;;;;;1.50;1.20;;;24.10;79.90;;;;;;4934677;29;20075;-74
2022/06/24 17:47:39;;;;;;;2.22;1.20;;;24.00;79.60;;;;;;4932787;29;20106;-75
2022/06/24 17:50:07;;;;;;;2.70;1.15;;;24.00;82.00;;;;;;4934466;29;20053;-75
2022/06/24 17:52:32;;;;;;;2.78;1.10;;;23.90;80.50;;;;;;4927826;29;20024;-75
2022/06/24 17:54:58;;;;;;;1.85;1.27;;;24.00;80.90;;;;;;4932547;29;20028;-74
2022/06/24 17:57:24;;;;;;;3.83;1.55;;;24.00;81.90;;;;;;4932113;29;20030;-73
2022/06/24 17:59:49;;;;;;;6.43;1.27;;;24.00;84.10;;;;;;4932657;29;20088;-74
2022/06/24 18:02:15;;;;;;;2.97;1.30;;;24.00;86.70;;;;;;4936354;29;20103;-73
2022/06/24 18:04:41;;;;;;;2.05;1.25;;;24.00;87.70;;;;;;4933949;28;20102;-73
2022/06/24 18:07:07;;;;;;;3.03;1.10;;;24.00;85.80;;;;;;4934262;29;20099;-76
2022/06/24 18:09:32;;;;;;;7.45;1.30;;;23.90;80.40;;;;;;4931607;29;20458;-73
2022/06/24 18:12:02;;;;;;;2.20;1.38;;;23.80;84.50;;;;;;4914519;29;20091;-73
2022/06/24 18:14:29;;;;;;;3.85;1.17;;;23.90;84.40;;;;;;4934203;29;20031;-73
2022/06/24 18:16:55;;;;;;;5.63;1.45;;;23.90;88.40;;;;;;4934225;29;20027;-78
2022/06/24 18:19:20;;;;;;;3.70;1.23;;;23.70;90.40;;;;;;4935077;29;20071;-75
2022/06/24 18:21:46;;;;;;;4.50;1.45;;;23.80;90.30;;;;;;4928252;29;20035;-78
2022/06/24 18:24:11;;;;;;;5.45;1.55;;;23.70;90.70;;;;;;4921717;29;20091;-78
2022/06/24 18:26:37;;;;;;;2.45;1.20;;;23.60;91.90;;;;;;4919386;29;20464;-78
2022/06/24 18:29:03;;;;;;;2.28;1.50;;;23.50;93.10;;;;;;4932271;29;21444;-78
2022/06/24 18:31:29;;;;;;;4.38;1.33;;;23.50;92.70;;;;;;4930275;29;20598;-78
2022/06/24 18:33:54;;;;;;;3.33;1.35;;;23.50;92.20;;;;;;4928168;29;20082;-79
2022/06/24 18:36:22;;;;;;;4.22;1.30;;;23.40;92.80;;;;;;4928649;29;20396;-79
2022/06/24 18:38:47;;;;;;;3.80;1.65;;;23.40;90.60;;;;;;4928488;29;20030;-79
2022/06/24 18:41:13;;;;;;;2.65;1.55;;;23.40;92.70;;;;;;4929057;29;20032;-75
2022/06/24 18:43:40;;;;;;;4.05;1.40;;;23.50;92.10;;;;;;4935631;29;20028;-74
2022/06/24 18:46:06;;;;;;;5.20;1.65;;;23.40;92.00;;;;;;4926658;29;20032;-74
2022/06/24 18:48:33;;;;;;;3.00;1.83;;;23.50;92.80;;;;;;4919415;29;20043;-74
2022/06/24 18:50:59;;;;;;;1.90;1.25;;;23.50;93.00;;;;;;4920508;29;20419;-75
2022/06/24 18:53:24;;;;;;;6.70;1.67;;;23.50;93.20;;;;;;4932318;29;20024;-74
2022/06/24 18:55:50;;;;;;;18.63;1.80;;;23.50;92.90;;;;;;4918336;29;20032;-74
2022/06/24 18:58:16;;;;;;;4.70;1.30;;;23.40;93.40;;;;;;4933129;29;20027;-74
2022/06/24 19:00:42;;;;;;;3.10;1.42;;;23.30;93.90;;;;;;4933154;29;20407;-75
2022/06/24 19:03:07;;;;;;;4.95;1.40;;;23.40;95.50;;;;;;4929173;29;20391;-75
2022/06/24 19:05:34;;;;;;;3.67;1.45;;;23.30;94.70;;;;;;4936590;29;20031;-74
2022/06/24 19:08:00;;;;;;;10.00;1.90;;;23.30;94.80;;;;;;4930616;29;20038;-75
2022/06/24 19:10:25;;;;;;;7.38;1.73;;;23.30;94.70;;;;;;4938601;29;20056;-74
2022/06/24 19:12:51;;;;;;;6.15;1.30;;;23.30;94.00;;;;;;4936979;29;20020;-74
2022/06/24 19:15:17;;;;;;;3.20;1.48;;;23.20;94.10;;;;;;4930156;29;20036;-74
2022/06/24 19:17:42;;;;;;;5.03;1.42;;;23.20;92.50;;;;;;4922632;29;20091;-74
2022/06/24 19:20:09;;;;;;;4.93;1.58;;;23.10;92.10;;;;;;4917398;29;20025;-75
2022/06/24 19:22:34;;;;;;;7.38;1.73;;;23.00;93.50;;;;;;4922204;29;20044;-75
2022/06/24 19:25:00;;;;;;;5.47;1.30;;;23.00;93.20;;;;;;4929371;29;20039;-75
2022/06/24 19:27:26;;;;;;;4.15;1.58;;;23.00;94.10;;;;;;4932884;29;20032;-76
2022/06/24 19:29:54;;;;;;;3.67;1.33;;;23.00;92.90;;;;;;4923852;29;20016;-75
2022/06/24 19:32:21;;;;;;;5.88;1.50;;;22.90;93.60;;;;;;4933445;29;20074;-74
2022/06/24 19:34:50;;;;;;;7.03;1.88;;;22.90;92.70;;;;;;4928464;29;20027;-75
2022/06/24 19:37:16;;;;;;;3.58;1.60;;;22.80;93.60;;;;;;4919717;29;20020;-74
2022/06/24 19:39:42;;;;;;;5.55;1.60;;;22.80;93.80;;;;;;4936502;29;20546;-74
2022/06/24 19:42:08;;;;;;;6.82;1.73;;;22.70;94.90;;;;;;4932573;29;20082;-74
2022/06/24 19:44:34;;;;;;;6.93;1.60;;;22.70;95.30;;;;;;4931556;29;20023;-74
2022/06/24 19:47:00;;;;;;;2.33;1.38;;;22.60;95.60;;;;;;4936389;29;20011;-74
2022/06/24 19:49:25;;;;;;;4.25;1.70;;;22.50;95.70;;;;;;4931210;29;20028;-74
2022/06/24 19:51:52;;;;;;;3.85;1.48;;;22.40;95.90;;;;;;4923268;29;22332;-75
2022/06/24 19:54:18;;;;;;;5.97;1.90;;;22.40;96.40;;;;;;4925020;29;20028;-74
2022/06/24 19:56:44;;;;;;;3.22;1.40;;;22.30;96.90;;;;;;4928841;29;20379;-74
2022/06/24 19:59:10;;;;;;;3.92;1.70;;;22.30;97.00;;;;;;4935032;29;20480;-74
2022/06/24 20:07:04;;;;;;;4.25;1.73;;;22.20;96.90;;;;;;4920862;29;20035;-75
2022/06/24 20:09:30;;;;;;;6.75;1.58;;;22.10;97.50;;;;;;4934166;29;20040;-75
2022/06/24 20:12:02;;;;;;;4.05;1.70;;;22.00;98.60;;;;;;4929173;29;20495;-75
2022/06/24 20:14:34;;;;;;;;;;;22.00;99.20;;;;;;4930188;29;20052;-75
2022/06/24 20:17:00;;;;;;;;;;;21.90;99.70;;;;;;4935599;29;19954;-75
2022/06/24 20:19:27;;;;;;;3.58;1.67;;;22.00;99.00;;;;;;4924363;29;19941;-75
2022/06/24 20:21:53;;;;;;;5.88;2.08;;;21.80;99.40;;;;;;4915794;29;20043;-75
2022/06/24 20:24:24;;;;;;;6.50;1.75;;;21.80;99.00;;;;;;4915406;29;20028;-75
2022/06/24 20:26:50;;;;;;;2.55;1.83;;;21.90;98.90;;;;;;4916813;29;20369;-75
2022/06/24 20:29:16;;;;;;;3.55;1.60;;;21.80;98.90;;;;;;4916326;29;20821;-75
2022/06/24 20:31:43;;;;;;;5.72;2.08;;;21.80;99.20;;;;;;4916865;29;20029;-75
2022/06/24 20:34:10;;;;;;;5.70;1.80;;;21.80;99.70;;;;;;4923187;29;20024;-75
2022/06/24 20:36:37;;;;;;;4.30;1.80;;;21.70;99.90;;;;;;4926425;29;20024;-74
2022/06/24 20:39:03;;;;;;;7.45;2.15;;;21.70;99.90;;;;;;4920991;29;20035;-75
2022/06/24 20:41:30;;;;;;;4.85;1.75;;;21.60;99.90;;;;;;4915789;29;20024;-75
2022/06/24 20:43:56;;;;;;;3.78;1.88;;;21.60;99.90;;;;;;4916189;29;20043;-75
2022/06/24 20:46:22;;;;;;;4.05;1.90;;;21.50;99.90;;;;;;4916081;29;20472;-75
2022/06/24 20:48:49;;;;;;;3.38;1.90;;;21.40;99.90;;;;;;4916410;29;20032;-75
2022/06/24 20:51:15;;;;;;;4.68;2.38;;;21.50;99.90;;;;;;4922413;29;20032;-75
2022/06/24 20:53:41;;;;;;;3.20;2.00;;;21.40;99.90;;;;;;4919918;29;20110;-74
2022/06/24 20:56:07;;;;;;;7.13;2.08;;;21.30;99.90;;;;;;4935012;29;20028;-75
2022/06/24 20:58:35;;;;;;;7.07;1.80;;;21.20;99.90;;;;;;4932657;29;20047;-75
2022/06/24 21:01:01;;;;;;;4.78;2.30;;;21.20;99.90;;;;;;4933145;29;20046;-75
2022/06/24 21:03:27;;;;;;;7.03;2.70;;;21.10;99.90;;;;;;4929820;29;20028;-75
2022/06/24 21:05:53;;;;;;;4.93;2.33;;;20.90;99.90;;;;;;4933817;29;20019;-75
2022/06/24 21:08:18;;;;;;;8.98;2.92;;;21.00;99.90;;;;;;4934941;29;20035;-75
2022/06/24 21:10:44;;;;;;;8.57;2.60;;;21.00;99.90;;;;;;4934535;29;20466;-75
2022/06/24 21:13:10;;;;;;;4.88;2.38;;;21.00;99.90;;;;;;4920058;29;20040;-75
2022/06/24 21:15:39;;;;;;;6.70;2.55;;;21.00;99.90;;;;;;4917933;29;20083;-75
2022/06/24 21:18:06;;;;;;;9.32;2.40;;;21.00;99.90;;;;;;4933081;29;20051;-75
2022/06/24 21:20:32;;;;;;;4.70;2.03;;;20.90;99.90;;;;;;4931624;29;20027;-75
2022/06/24 21:22:58;;;;;;;3.70;2.53;;;20.80;99.90;;;;;;4926222;29;20368;-76
2022/06/24 21:25:23;;;;;;;3.58;2.22;;;20.70;99.90;;;;;;4933449;29;20081;-75
2022/06/24 21:27:52;;;;;;;4.53;1.98;;;20.60;99.90;;;;;;4923291;29;20107;-75
2022/06/24 21:30:19;;;;;;;10.40;2.50;;;20.60;99.90;;;;;;4921471;29;20091;-74
2022/06/24 21:32:44;;;;;;;9.07;2.50;;;20.50;99.90;;;;;;4928429;29;20078;-75
2022/06/24 21:35:10;;;;;;;4.60;2.47;;;20.50;99.90;;;;;;4920712;29;20484;-75
2022/06/24 21:37:36;;;;;;;7.93;2.30;;;20.50;99.90;;;;;;4926636;29;20099;-75
2022/06/24 21:40:03;;;;;;;3.10;2.17;;;20.40;99.90;;;;;;4916363;29;20023;-74
2022/06/24 21:42:29;;;;;;;7.25;2.35;;;20.40;99.90;;;;;;4915765;29;20024;-74
2022/06/24 21:44:55;;;;;;;6.93;2.00;;;20.30;99.90;;;;;;4915803;29;20036;-75
2022/06/24 21:47:24;;;;;;;4.35;2.35;;;20.20;99.90;;;;;;4933411;29;20569;-75
2022/06/24 21:49:52;;;;;;;4.65;2.40;;;20.30;99.90;;;;;;4935260;29;20107;-75
2022/06/24 21:52:18;;;;;;;3.78;2.15;;;20.40;99.90;;;;;;4934831;29;20024;-75
2022/06/24 21:54:44;;;;;;;3.55;1.75;;;20.30;99.90;;;;;;4935862;29;20448;-75
2022/06/24 21:57:10;;;;;;;3.45;2.00;;;20.20;99.90;;;;;;4938685;29;20469;-75
2022/06/24 21:59:35;;;;;;;5.35;2.45;;;20.20;99.90;;;;;;4938359;29;20019;-75
2022/06/24 22:02:01;;;;;;;8.98;2.40;;;20.10;99.90;;;;;;4938728;29;20024;-75
2022/06/24 22:04:27;;;;;;;5.10;1.95;;;20.20;99.90;;;;;;4938681;29;20106;-74
2022/06/24 22:06:52;;;;;;;3.92;1.98;;;20.10;99.90;;;;;;4939088;29;20439;-75
2022/06/24 22:09:18;;;;;;;3.90;2.13;;;20.10;99.90;;;;;;4936523;29;20177;-75
2022/06/24 22:11:44;;;;;;;4.95;2.10;;;20.10;99.90;;;;;;4933705;29;20488;-75
2022/06/24 22:14:11;;;;;;;5.68;2.33;;;20.10;99.90;;;;;;4926557;29;20028;-75
2022/06/24 22:16:37;;;;;;;4.28;1.90;;;20.00;99.90;;;;;;4929866;29;20028;-74
2022/06/24 22:19:06;;;;;;;5.50;2.28;;;19.90;99.90;;;;;;4929604;29;20128;-75
2022/06/24 22:21:32;;;;;;;3.53;1.98;;;19.80;99.90;;;;;;4931259;29;20428;-76
2022/06/24 22:23:59;;;;;;;3.72;1.95;;;19.70;99.90;;;;;;4937948;29;20042;-75
2022/06/24 22:26:26;;;;;;;3.50;1.88;;;19.80;99.90;;;;;;4938417;29;20401;-75
2022/06/24 22:28:53;;;;;;;5.50;2.30;;;19.70;99.90;;;;;;4937212;29;20087;-76
2022/06/24 22:31:18;;;;;;;4.53;2.20;;;19.70;99.90;;;;;;4938365;29;20034;-75
2022/06/24 22:33:46;;;;;;;5.05;1.92;;;19.60;99.90;;;;;;4938467;29;20027;-75
2022/06/24 22:36:11;;;;;;;6.25;2.30;;;19.50;99.90;;;;;;4938360;29;20373;-75
2022/06/24 22:38:37;;;;;;;6.05;2.30;;;19.60;99.90;;;;;;4937908;29;20038;-75
2022/06/24 22:41:03;;;;;;;4.38;2.20;;;19.70;99.90;;;;;;4937651;29;20027;-76
2022/06/24 22:43:28;;;;;;;3.85;2.05;;;19.70;99.90;;;;;;4937472;29;20040;-75
2022/06/24 22:45:54;;;;;;;7.38;2.08;;;19.70;99.90;;;;;;4937784;29;20055;-75
2022/06/24 22:48:20;;;;;;;5.95;1.98;;;19.70;99.90;;;;;;4938175;29;20101;-75
2022/06/24 22:50:45;;;;;;;5.05;2.05;;;19.60;99.90;;;;;;4937945;29;20026;-75
2022/06/24 22:53:11;;;;;;;4.07;1.83;;;19.50;99.90;;;;;;4937770;29;20079;-75
2022/06/24 22:55:36;;;;;;;5.07;2.20;;;19.50;99.90;;;;;;4936714;29;20051;-75
2022/06/24 22:58:02;;;;;;;3.17;1.90;;;19.60;99.90;;;;;;4937948;29;20488;-75
2022/06/24 23:00:28;;;;;;;4.18;1.90;;;19.50;99.90;;;;;;4937715;29;20027;-75
2022/06/24 23:02:54;;;;;;;5.13;1.92;;;19.50;99.90;;;;;;4937656;29;20031;-75
2022/06/24 23:05:19;;;;;;;5.32;1.95;;;19.40;99.90;;;;;;4937194;29;20380;-75
2022/06/24 23:07:45;;;;;;;2.50;1.70;;;19.30;99.90;;;;;;4936005;29;20032;-75
2022/06/24 23:10:15;;;;;;;6.07;1.85;;;19.40;99.90;;;;;;4931241;29;20052;-75
2022/06/24 23:12:41;;;;;;;3.15;2.20;;;19.40;99.90;;;;;;4916854;29;20032;-75
2022/06/24 23:15:08;;;;;;;5.68;2.30;;;19.40;99.90;;;;;;4919479;29;20020;-75
2022/06/24 23:17:34;;;;;;;3.30;1.83;;;19.30;99.90;;;;;;4937503;29;20086;-75
2022/06/24 23:19:59;;;;;;;3.20;1.95;;;19.20;99.90;;;;;;4927279;29;20024;-75
2022/06/24 23:22:25;;;;;;;4.47;2.08;;;19.30;99.90;;;;;;4937080;29;20368;-75
2022/06/24 23:24:51;;;;;;;7.65;1.80;;;19.30;99.90;;;;;;4934816;29;20027;-75
2022/06/24 23:27:16;;;;;;;3.20;2.22;;;19.30;99.90;;;;;;4918683;29;20096;-75
2022/06/24 23:29:42;;;;;;;3.35;2.20;;;19.30;99.90;;;;;;4918127;29;20021;-75
2022/06/24 23:32:08;;;;;;;5.68;2.05;;;19.20;99.90;;;;;;4919253;29;20040;-75
2022/06/24 23:34:33;;;;;;;3.45;1.77;;;19.20;99.90;;;;;;4935604;29;20027;-75
2022/06/24 23:36:59;;;;;;;4.68;1.92;;;19.20;99.90;;;;;;4936621;29;20042;-75
2022/06/24 23:39:24;;;;;;;9.20;2.28;;;19.20;99.90;;;;;;4936802;29;20016;-75
2022/06/24 23:41:50;;;;;;;4.47;2.17;;;19.10;99.90;;;;;;4937123;29;20089;-75
2022/06/24 23:44:16;;;;;;;4.63;1.90;;;19.00;99.90;;;;;;4937184;29;20519;-75
2022/06/24 23:46:41;;;;;;;9.13;1.98;;;18.90;99.90;;;;;;4936886;29;20032;-75
2022/06/24 23:51:51;;;;;;;4.97;1.88;;;19.00;99.90;;;;;;4936960;29;20046;-75
2022/06/24 23:54:17;;;;;;;5.53;2.15;;;18.80;99.90;;;;;;4936319;29;20027;-75
2022/06/24 23:56:43;;;;;;;3.45;2.00;;;18.70;99.90;;;;;;4936612;29;20024;-75
2022/06/24 23:59:08;;;;;;;4.95;2.45;;;18.80;99.90;;;;;;4937006;29;20028;-75
